createdAt,value
2023-03-31T00:00:15.023Z,5.32
2023-03-31T00:02:42.053Z,10.15
2023-03-31T00:05:09.990Z,8.38
2023-03-31T00:07:38.605Z,6.53
2023-03-31T00:10:17.217Z,4.97
2023-03-31T00:12:46.237Z,4.43
2023-03-31T00:15:13.650Z,3.63
2023-03-31T00:17:40.568Z,5.10
2023-03-31T00:20:12.617Z,6.05
2023-03-31T00:22:42.527Z,5.53
2023-03-31T00:25:16.582Z,4.95
2023-03-31T00:27:44.690Z,4.07
2023-03-31T00:30:13.634Z,5.30
2023-03-31T00:32:40.581Z,6.70
2023-03-31T00:35:09.023Z,4.63
2023-03-31T00:37:35.940Z,5.47
2023-03-31T00:40:10.111Z,6.78
2023-03-31T00:42:41.995Z,4.50
2023-03-31T00:45:14.899Z,9.05
2023-03-31T00:47:44.292Z,5.18
2023-03-31T00:50:19.000Z,7.57
2023-03-31T00:52:46.502Z,6.65
2023-03-31T00:55:17.103Z,3.00
2023-03-31T00:57:46.874Z,4.47
2023-03-31T01:00:19.038Z,4.65
2023-03-31T01:02:53.328Z,5.47
2023-03-31T01:05:23.583Z,3.65
2023-03-31T01:07:52.041Z,3.58
2023-03-31T01:10:19.071Z,5.13
2023-03-31T01:12:54.888Z,5.22
2023-03-31T01:15:22.578Z,4.68
2023-03-31T01:17:51.375Z,7.03
2023-03-31T01:20:38.987Z,5.30
2023-03-31T01:23:43.614Z,5.10
2023-03-31T01:26:22.617Z,4.72
2023-03-31T01:29:11.601Z,5.07
2023-03-31T01:32:13.817Z,2.65
2023-03-31T01:35:11.676Z,5.40
2023-03-31T01:38:06.155Z,2.10
2023-03-31T01:40:54.592Z,3.85
2023-03-31T01:43:26.981Z,4.32
2023-03-31T01:46:24.296Z,5.43
2023-03-31T01:49:23.352Z,4.70
2023-03-31T01:51:58.187Z,8.77
2023-03-31T01:54:47.142Z,4.13
2023-03-31T01:57:24.878Z,3.03
2023-03-31T02:00:04.466Z,3.65
2023-03-31T02:02:43.327Z,4.63
2023-03-31T02:05:17.920Z,5.07
2023-03-31T02:07:51.602Z,5.50
2023-03-31T02:10:18.877Z,3.72
2023-03-31T02:12:45.921Z,7.55
2023-03-31T02:15:19.416Z,7.25
2023-03-31T02:17:49.182Z,4.70
2023-03-31T02:20:18.595Z,3.90
2023-03-31T02:22:49.850Z,6.88
2023-03-31T02:25:19.905Z,2.25
2023-03-31T02:27:51.974Z,6.15
2023-03-31T02:30:18.816Z,3.22
2023-03-31T02:32:47.001Z,6.97
2023-03-31T02:35:20.640Z,5.75
2023-03-31T02:37:49.977Z,7.28
2023-03-31T02:40:22.162Z,7.10
2023-03-31T02:42:49.437Z,3.22
2023-03-31T02:45:49.617Z,6.68
2023-03-31T02:48:18.426Z,7.95
2023-03-31T02:51:03.427Z,6.97
2023-03-31T02:53:56.103Z,3.88
2023-03-31T02:56:40.103Z,5.07
2023-03-31T02:59:25.493Z,6.63
2023-03-31T03:02:07.743Z,4.93
2023-03-31T03:04:37.338Z,2.58
2023-03-31T03:07:13.050Z,2.72
2023-03-31T03:09:51.207Z,4.28
2023-03-31T03:12:23.135Z,6.93
2023-03-31T03:14:52.850Z,4.00
2023-03-31T03:17:41.825Z,5.40
2023-03-31T03:20:11.948Z,4.57
2023-03-31T03:22:40.048Z,6.80
2023-03-31T03:25:09.760Z,5.90
2023-03-31T03:27:37.278Z,5.63
2023-03-31T03:30:05.787Z,3.08
2023-03-31T03:32:33.940Z,4.25
2023-03-31T03:35:01.759Z,5.85
2023-03-31T03:37:29.077Z,2.60
2023-03-31T03:39:56.127Z,4.45
2023-03-31T03:42:22.905Z,4.30
2023-03-31T03:44:49.852Z,3.92
2023-03-31T03:47:16.636Z,5.55
2023-03-31T03:49:43.492Z,5.40
2023-03-31T03:52:13.267Z,3.53
2023-03-31T03:54:40.095Z,5.00
2023-03-31T03:57:07.777Z,6.60
2023-03-31T03:59:34.672Z,4.57
2023-03-31T04:02:01.481Z,4.43
2023-03-31T04:04:28.274Z,4.50
2023-03-31T04:06:55.113Z,4.10
2023-03-31T04:09:21.898Z,5.25
2023-03-31T04:11:48.677Z,4.13
2023-03-31T04:14:15.779Z,8.43
2023-03-31T04:16:43.070Z,6.60
2023-03-31T04:19:12.845Z,3.78
2023-03-31T04:21:45.501Z,5.60
2023-03-31T04:24:16.380Z,4.43
2023-03-31T04:26:43.546Z,5.75
2023-03-31T04:29:16.789Z,4.30
2023-03-31T04:31:44.242Z,3.22
2023-03-31T04:34:15.616Z,6.25
2023-03-31T04:36:47.739Z,2.95
2023-03-31T04:39:18.878Z,5.55
2023-03-31T04:41:45.706Z,4.10
2023-03-31T04:44:12.584Z,5.10
2023-03-31T04:46:39.398Z,8.75
2023-03-31T04:49:06.665Z,5.15
2023-03-31T04:51:33.483Z,4.30
2023-03-31T04:54:00.458Z,3.00
2023-03-31T04:56:27.574Z,6.65
2023-03-31T04:58:54.477Z,4.18
2023-03-31T05:01:21.377Z,3.80
2023-03-31T05:03:48.429Z,5.90
2023-03-31T05:06:18.577Z,6.55
2023-03-31T05:08:45.655Z,7.60
2023-03-31T05:11:12.436Z,5.13
2023-03-31T05:13:39.204Z,4.07
2023-03-31T05:16:07.800Z,6.57
2023-03-31T05:18:34.867Z,3.25
2023-03-31T05:21:19.564Z,6.85
2023-03-31T05:23:46.872Z,4.28
2023-03-31T05:26:14.045Z,7.30
2023-03-31T05:28:41.660Z,4.47
2023-03-31T05:31:09.413Z,4.80
2023-03-31T05:33:40.503Z,6.03
2023-03-31T05:36:11.792Z,4.95
2023-03-31T05:38:40.488Z,9.18
2023-03-31T05:41:09.613Z,7.78
2023-03-31T05:43:37.371Z,4.00
2023-03-31T05:46:05.167Z,4.80
2023-03-31T05:48:32.430Z,5.00
2023-03-31T05:51:00.000Z,2.78
2023-03-31T05:53:27.244Z,7.95
2023-03-31T05:56:02.226Z,6.18
2023-03-31T05:58:29.732Z,4.95
2023-03-31T06:01:11.119Z,7.43
2023-03-31T06:03:42.251Z,5.18
2023-03-31T06:06:10.106Z,5.35
2023-03-31T06:08:38.073Z,5.93
2023-03-31T06:11:06.972Z,3.60
2023-03-31T06:13:37.545Z,6.55
2023-03-31T06:16:04.928Z,5.03
2023-03-31T06:18:33.585Z,4.97
2023-03-31T06:21:01.038Z,6.93
2023-03-31T06:23:27.877Z,5.50
2023-03-31T06:25:54.885Z,3.70
2023-03-31T06:28:21.810Z,8.88
2023-03-31T06:30:48.651Z,6.25
2023-03-31T06:33:16.731Z,4.68
2023-03-31T06:35:43.773Z,6.22
2023-03-31T06:38:10.843Z,5.55
2023-03-31T06:40:37.711Z,6.18
2023-03-31T06:43:04.687Z,5.15
2023-03-31T06:45:31.546Z,3.45
2023-03-31T06:47:58.417Z,7.35
2023-03-31T06:50:25.441Z,5.82
2023-03-31T06:52:55.294Z,6.15
2023-03-31T06:55:22.241Z,4.60
2023-03-31T06:57:49.153Z,10.15
2023-03-31T07:00:16.872Z,7.90
2023-03-31T07:02:43.768Z,5.32
2023-03-31T07:05:11.145Z,6.38
2023-03-31T07:07:38.067Z,6.43
2023-03-31T07:10:05.169Z,4.60
2023-03-31T07:12:34.085Z,6.28
2023-03-31T07:15:01.097Z,3.17
2023-03-31T07:17:28.301Z,7.60
2023-03-31T07:19:55.089Z,5.95
2023-03-31T07:22:21.959Z,6.35
2023-03-31T07:24:48.725Z,5.07
2023-03-31T07:27:15.694Z,9.73
2023-03-31T07:29:42.536Z,3.75
2023-03-31T07:32:09.823Z,6.38
2023-03-31T07:34:37.825Z,5.82
2023-03-31T07:37:04.913Z,7.68
2023-03-31T07:39:31.799Z,5.88
2023-03-31T07:41:58.718Z,5.25
2023-03-31T07:44:25.842Z,4.30
2023-03-31T07:46:52.656Z,7.68
2023-03-31T07:49:19.562Z,4.78
2023-03-31T07:51:46.341Z,7.75
2023-03-31T07:54:13.300Z,4.65
2023-03-31T07:56:40.235Z,7.55
2023-03-31T07:59:07.051Z,3.60
2023-03-31T08:01:33.919Z,7.25
2023-03-31T08:04:01.252Z,12.43
2023-03-31T08:06:30.135Z,5.40
2023-03-31T08:08:57.913Z,7.38
2023-03-31T08:11:26.210Z,2.67
2023-03-31T08:13:53.600Z,3.92
2023-03-31T08:16:20.555Z,5.70
2023-03-31T08:18:47.493Z,11.52
2023-03-31T08:21:14.592Z,6.65
2023-03-31T08:23:41.518Z,5.20
2023-03-31T08:26:15.178Z,6.80
2023-03-31T08:28:49.012Z,6.07
2023-03-31T08:31:16.627Z,7.55
2023-03-31T08:33:45.489Z,4.82
2023-03-31T08:36:12.722Z,5.55
2023-03-31T08:38:42.338Z,4.50
2023-03-31T08:41:23.065Z,5.05
2023-03-31T08:43:51.687Z,6.25
2023-03-31T08:46:18.957Z,5.75
2023-03-31T08:48:49.592Z,10.35
2023-03-31T08:51:22.113Z,4.95
2023-03-31T08:53:58.281Z,5.43
2023-03-31T08:56:26.496Z,6.07
2023-03-31T08:58:54.290Z,5.55
2023-03-31T09:01:55.678Z,5.28
2023-03-31T09:04:56.410Z,4.80
2023-03-31T09:07:54.081Z,5.82
2023-03-31T09:10:31.284Z,6.97
2023-03-31T09:13:24.372Z,4.63
2023-03-31T09:15:55.261Z,5.43
2023-03-31T09:18:38.556Z,3.60
2023-03-31T09:21:17.517Z,6.60
2023-03-31T09:23:49.255Z,4.80
2023-03-31T09:26:34.781Z,5.75
2023-03-31T09:29:02.668Z,4.63
2023-03-31T09:31:30.085Z,4.78
2023-03-31T09:34:01.527Z,4.75
2023-03-31T09:36:29.053Z,5.13
2023-03-31T09:38:56.013Z,8.40
2023-03-31T09:41:22.959Z,7.97
2023-03-31T09:43:51.640Z,3.00
2023-03-31T09:46:29.460Z,4.47
2023-03-31T09:49:01.766Z,2.88
2023-03-31T09:51:31.508Z,3.97
2023-03-31T09:54:12.915Z,5.47
2023-03-31T09:56:42.844Z,6.57
2023-03-31T09:59:21.875Z,2.35
2023-03-31T10:01:53.494Z,3.10
2023-03-31T10:04:26.390Z,4.57
2023-03-31T10:06:54.708Z,4.45
2023-03-31T10:09:25.779Z,5.05
2023-03-31T10:12:25.897Z,3.42
2023-03-31T10:14:55.185Z,3.55
2023-03-31T10:17:23.973Z,3.45
2023-03-31T10:20:07.635Z,2.20
2023-03-31T10:22:35.847Z,3.63
2023-03-31T10:25:15.860Z,4.13
2023-03-31T10:27:45.758Z,4.40
2023-03-31T10:30:17.098Z,2.45
2023-03-31T10:32:44.738Z,3.90
2023-03-31T10:35:23.435Z,3.35
2023-03-31T10:37:51.666Z,3.85
2023-03-31T10:40:22.855Z,2.45
2023-03-31T10:42:59.653Z,5.75
2023-03-31T10:45:37.000Z,3.40
2023-03-31T10:48:06.314Z,7.65
2023-03-31T10:50:35.491Z,4.47
2023-03-31T10:53:05.027Z,5.50
2023-03-31T10:55:44.242Z,4.03
2023-03-31T10:58:39.920Z,7.18
2023-03-31T11:01:22.600Z,5.93
2023-03-31T11:04:13.885Z,4.45
2023-03-31T11:06:52.918Z,2.40
2023-03-31T11:09:55.094Z,4.38
2023-03-31T11:12:26.756Z,5.43
2023-03-31T11:15:43.174Z,3.03
2023-03-31T11:18:33.407Z,4.25
2023-03-31T11:21:18.485Z,4.50
2023-03-31T11:24:14.641Z,4.72
2023-03-31T11:27:10.192Z,3.08
2023-03-31T11:29:48.953Z,5.47
2023-03-31T11:32:37.532Z,4.82
2023-03-31T11:35:16.250Z,4.47
2023-03-31T11:37:53.171Z,5.53
2023-03-31T11:40:32.456Z,5.85
2023-03-31T11:43:17.593Z,4.25
2023-03-31T11:46:09.500Z,5.60
2023-03-31T11:48:51.571Z,5.60
2023-03-31T11:51:23.650Z,7.70
2023-03-31T11:53:52.440Z,6.85
2023-03-31T11:56:20.167Z,6.57
2023-03-31T11:58:53.647Z,7.03
2023-03-31T12:01:43.076Z,6.45
2023-03-31T12:04:12.001Z,7.50
2023-03-31T12:06:42.792Z,6.47
2023-03-31T12:09:37.465Z,8.90
2023-03-31T12:12:09.407Z,4.85
2023-03-31T12:14:41.185Z,5.85
2023-03-31T12:17:16.390Z,3.80
2023-03-31T12:19:52.458Z,5.85
2023-03-31T12:22:24.237Z,2.58
2023-03-31T12:24:52.148Z,3.50
2023-03-31T12:27:41.906Z,5.32
2023-03-31T12:30:15.550Z,5.82
2023-03-31T12:32:54.035Z,5.53
2023-03-31T12:35:24.576Z,2.50
2023-03-31T12:38:06.038Z,4.85
2023-03-31T12:41:00.761Z,4.28
2023-03-31T12:43:42.740Z,7.75
2023-03-31T12:46:47.433Z,6.40
2023-03-31T12:49:17.435Z,5.65
2023-03-31T12:52:10.188Z,9.85
2023-03-31T12:54:57.450Z,8.10
2023-03-31T12:57:25.954Z,6.28
2023-03-31T13:00:14.095Z,3.60
2023-03-31T13:02:41.521Z,6.22
2023-03-31T13:05:36.549Z,11.40
2023-03-31T13:08:08.420Z,10.57
2023-03-31T13:11:00.119Z,7.07
2023-03-31T13:13:27.056Z,8.95
2023-03-31T13:15:56.793Z,6.60
2023-03-31T13:18:24.036Z,6.80
2023-03-31T13:21:01.241Z,7.90
2023-03-31T13:23:31.370Z,5.38
2023-03-31T13:25:59.511Z,9.45
2023-03-31T13:28:27.886Z,6.72
2023-03-31T13:31:01.065Z,5.38
2023-03-31T13:33:57.776Z,10.50
2023-03-31T13:36:34.372Z,4.82
2023-03-31T13:39:29.173Z,5.32
2023-03-31T13:42:27.099Z,3.58
2023-03-31T13:45:09.196Z,4.53
2023-03-31T13:47:54.684Z,5.28
2023-03-31T13:50:37.104Z,4.22
2023-03-31T13:53:32.206Z,4.28
2023-03-31T13:56:28.591Z,3.85
2023-03-31T13:59:37.021Z,3.67
2023-03-31T14:02:36.424Z,5.80
2023-03-31T14:05:28.252Z,3.45
2023-03-31T14:07:58.581Z,2.35
2023-03-31T14:10:30.593Z,4.05
2023-03-31T14:13:14.887Z,2.88
2023-03-31T14:15:53.244Z,3.30
2023-03-31T14:18:27.162Z,3.75
2023-03-31T14:21:19.065Z,2.97
2023-03-31T14:24:08.976Z,3.50
2023-03-31T14:26:39.517Z,4.70
2023-03-31T14:29:23.120Z,2.25
2023-03-31T14:32:02.168Z,2.88
2023-03-31T14:34:47.486Z,2.63
2023-03-31T14:37:18.055Z,4.30
2023-03-31T14:39:47.746Z,2.15
2023-03-31T14:42:18.522Z,3.80
2023-03-31T14:44:48.261Z,3.83
2023-03-31T14:47:23.623Z,3.75
2023-03-31T14:50:02.368Z,3.70
2023-03-31T14:52:32.198Z,2.20
2023-03-31T14:55:00.060Z,1.52
2023-03-31T14:57:38.745Z,1.33
2023-03-31T15:00:08.550Z,2.17
2023-03-31T15:02:37.608Z,2.53
2023-03-31T15:05:21.647Z,3.33
2023-03-31T15:07:49.098Z,2.45
2023-03-31T15:10:20.520Z,1.98
2023-03-31T15:12:48.808Z,2.17
2023-03-31T15:15:16.580Z,1.33
2023-03-31T15:17:43.893Z,2.35
2023-03-31T15:20:28.221Z,2.22
2023-03-31T15:22:57.025Z,0.90
2023-03-31T15:25:31.040Z,3.25
2023-03-31T15:28:01.979Z,2.00
2023-03-31T15:30:29.501Z,0.63
2023-03-31T15:33:04.407Z,3.63
2023-03-31T15:35:42.815Z,1.58
2023-03-31T15:38:12.124Z,1.88
2023-03-31T15:40:41.238Z,1.70
2023-03-31T15:43:29.079Z,2.42
2023-03-31T15:45:57.710Z,4.00
2023-03-31T15:48:38.992Z,2.00
2023-03-31T15:51:14.936Z,3.38
2023-03-31T15:53:51.209Z,1.30
2023-03-31T15:56:34.970Z,2.67
2023-03-31T15:59:05.567Z,3.20
2023-03-31T16:01:46.600Z,2.40
2023-03-31T16:04:15.024Z,3.85
2023-03-31T16:06:52.838Z,3.25
2023-03-31T16:09:24.739Z,2.65
2023-03-31T16:11:57.452Z,2.05
2023-03-31T16:14:28.890Z,3.25
2023-03-31T16:17:05.306Z,1.38
2023-03-31T16:19:43.167Z,1.77
2023-03-31T16:22:14.219Z,3.35
2023-03-31T16:24:41.215Z,1.05
2023-03-31T16:27:09.597Z,2.95
2023-03-31T16:29:38.279Z,2.63
2023-03-31T16:32:19.351Z,2.33
2023-03-31T16:35:00.955Z,2.40
2023-03-31T16:37:28.168Z,3.38
2023-03-31T16:39:55.117Z,1.30
2023-03-31T16:42:21.936Z,1.02
2023-03-31T16:44:59.858Z,0.85
2023-03-31T16:47:36.253Z,1.70
2023-03-31T16:50:07.849Z,1.67
2023-03-31T16:52:36.113Z,2.67
2023-03-31T16:55:05.246Z,1.38
2023-03-31T16:57:32.450Z,1.80
2023-03-31T16:59:59.911Z,3.80
2023-03-31T17:02:26.906Z,3.45
2023-03-31T17:04:56.655Z,0.98
2023-03-31T17:07:26.342Z,2.55
2023-03-31T17:09:53.193Z,1.42
2023-03-31T17:12:20.059Z,1.23
2023-03-31T17:14:46.958Z,3.80
2023-03-31T17:17:15.292Z,4.05
2023-03-31T17:19:43.430Z,2.80
2023-03-31T17:22:10.226Z,3.08
2023-03-31T17:24:37.148Z,2.13
2023-03-31T17:27:04.092Z,2.67
2023-03-31T17:29:30.959Z,3.75
2023-03-31T17:31:57.826Z,2.10
2023-03-31T17:34:25.112Z,2.83
2023-03-31T17:36:55.137Z,4.53
2023-03-31T17:39:21.980Z,3.70
2023-03-31T17:41:48.774Z,2.35
2023-03-31T17:44:15.779Z,2.20
2023-03-31T17:46:42.634Z,2.20
2023-03-31T17:49:09.485Z,2.22
2023-03-31T17:51:37.128Z,2.25
2023-03-31T17:54:04.228Z,1.70
2023-03-31T17:56:31.337Z,2.13
2023-03-31T17:58:58.192Z,2.13
2023-03-31T18:01:25.182Z,4.78
2023-03-31T18:03:52.041Z,3.83
2023-03-31T18:06:19.434Z,5.32
2023-03-31T18:08:46.533Z,4.00
2023-03-31T18:11:13.858Z,5.03
2023-03-31T18:13:40.971Z,3.90
2023-03-31T18:16:13.289Z,5.85
2023-03-31T18:18:40.674Z,3.55
2023-03-31T18:21:09.350Z,4.72
2023-03-31T18:23:37.338Z,3.80
2023-03-31T18:26:08.336Z,4.28
2023-03-31T18:28:35.372Z,3.75
2023-03-31T18:31:06.751Z,3.85
2023-03-31T18:33:34.150Z,3.97
2023-03-31T18:36:01.356Z,4.38
2023-03-31T18:38:28.481Z,4.20
2023-03-31T18:40:55.601Z,5.53
2023-03-31T18:43:22.761Z,7.15
2023-03-31T18:45:49.828Z,5.43
2023-03-31T18:48:18.716Z,6.45
2023-03-31T18:50:46.336Z,8.85
2023-03-31T18:53:15.398Z,9.07
2023-03-31T18:55:42.724Z,10.25
2023-03-31T18:58:09.999Z,11.52
2023-03-31T19:00:37.377Z,9.68
2023-03-31T19:03:04.459Z,9.20
2023-03-31T19:05:31.435Z,10.27
2023-03-31T19:07:58.240Z,8.60
2023-03-31T19:10:25.015Z,9.45
2023-03-31T19:12:52.409Z,10.63
2023-03-31T19:15:19.595Z,11.43
2023-03-31T19:17:46.835Z,10.18
2023-03-31T19:20:16.890Z,11.23
2023-03-31T19:22:49.592Z,8.68
2023-03-31T19:25:18.023Z,8.90
2023-03-31T19:27:46.304Z,8.30
2023-03-31T19:30:20.215Z,8.27
2023-03-31T19:32:49.087Z,7.85
2023-03-31T19:35:17.352Z,6.07
2023-03-31T19:37:44.901Z,7.88
2023-03-31T19:40:12.136Z,7.10
2023-03-31T19:42:39.012Z,8.63
2023-03-31T19:45:06.586Z,8.07
2023-03-31T19:47:33.517Z,7.68
2023-03-31T19:50:00.806Z,6.80
2023-03-31T19:52:29.129Z,8.80
2023-03-31T19:54:56.264Z,7.25
2023-03-31T19:57:24.435Z,10.98
2023-03-31T19:59:51.544Z,8.90
2023-03-31T20:02:18.790Z,12.32
2023-03-31T20:04:46.071Z,10.50
2023-03-31T20:07:13.881Z,11.73
2023-03-31T20:09:41.053Z,12.02
2023-03-31T20:12:08.280Z,10.95
2023-03-31T20:14:35.509Z,13.50
2023-03-31T20:17:03.524Z,10.73
2023-03-31T20:19:30.435Z,13.27
2023-03-31T20:21:58.162Z,11.30
2023-03-31T20:24:25.145Z,10.95
2023-03-31T20:26:53.751Z,12.40
2023-03-31T20:29:21.269Z,11.70
2023-03-31T20:31:50.509Z,14.57
2023-03-31T20:34:18.657Z,12.73
2023-03-31T20:36:49.287Z,11.77
2023-03-31T20:39:16.691Z,14.15
2023-03-31T20:41:43.831Z,12.68
2023-03-31T20:44:15.245Z,11.43
2023-03-31T20:46:43.643Z,11.88
2023-03-31T20:49:10.659Z,14.75
2023-03-31T20:51:39.007Z,9.80
2023-03-31T20:54:08.117Z,9.90
2023-03-31T20:56:38.061Z,10.25
2023-03-31T20:59:06.328Z,9.30
2023-03-31T21:01:35.242Z,6.32
2023-03-31T21:04:04.198Z,6.55
2023-03-31T21:06:36.707Z,7.25
2023-03-31T21:09:03.700Z,8.18
2023-03-31T21:11:30.538Z,4.32
2023-03-31T21:13:57.361Z,3.90
2023-03-31T21:16:24.272Z,3.55
2023-03-31T21:18:51.977Z,3.83
2023-03-31T21:21:19.709Z,3.05
2023-03-31T21:23:47.239Z,3.05
2023-03-31T21:26:15.895Z,6.07
2023-03-31T21:28:43.640Z,2.78
2023-03-31T21:31:11.447Z,2.80
2023-03-31T21:33:40.046Z,3.70
2023-03-31T21:36:09.840Z,5.75
2023-03-31T21:38:37.348Z,5.55
2023-03-31T21:41:08.972Z,3.60
2023-03-31T21:43:36.161Z,5.75
2023-03-31T21:46:03.389Z,5.50
2023-03-31T21:48:30.277Z,2.58
2023-03-31T21:51:00.801Z,2.13
2023-03-31T21:53:29.306Z,4.85
2023-03-31T21:55:56.714Z,3.75
2023-03-31T21:58:25.585Z,4.10
2023-03-31T22:00:52.810Z,4.72
2023-03-31T22:03:27.132Z,1.92
2023-03-31T22:05:58.628Z,2.80
2023-03-31T22:08:27.293Z,3.47
2023-03-31T22:10:55.106Z,2.85
2023-03-31T22:13:22.521Z,2.15
2023-03-31T22:15:49.345Z,2.97
2023-03-31T22:18:17.259Z,2.45
2023-03-31T22:20:44.593Z,2.95
2023-03-31T22:23:11.773Z,3.08
2023-03-31T22:25:38.567Z,3.17
2023-03-31T22:28:07.117Z,4.78
2023-03-31T22:30:34.214Z,2.67
2023-03-31T22:33:01.483Z,4.85
2023-03-31T22:35:28.818Z,2.63
2023-03-31T22:37:55.891Z,2.97
2023-03-31T22:40:24.055Z,3.13
2023-03-31T22:42:50.994Z,2.63
2023-03-31T22:45:17.868Z,3.35
2023-03-31T22:47:44.782Z,3.33
2023-03-31T22:50:11.656Z,3.13
2023-03-31T22:52:38.541Z,3.53
2023-03-31T22:55:06.481Z,4.55
2023-03-31T22:57:33.700Z,3.17
2023-03-31T23:00:00.972Z,5.07
2023-03-31T23:02:27.840Z,2.85
2023-03-31T23:04:54.712Z,3.92
2023-03-31T23:07:22.184Z,4.80
2023-03-31T23:09:49.110Z,4.38
2023-03-31T23:12:16.201Z,5.28
2023-03-31T23:14:43.121Z,2.35
2023-03-31T23:17:09.978Z,3.95
2023-03-31T23:19:38.017Z,4.10
2023-03-31T23:22:06.003Z,4.20
2023-03-31T23:24:33.042Z,2.95
2023-03-31T23:26:59.899Z,6.80
2023-03-31T23:29:27.578Z,4.43
2023-03-31T23:31:54.570Z,3.58
2023-03-31T23:34:21.516Z,3.83
2023-03-31T23:36:48.407Z,5.90
2023-03-31T23:39:15.200Z,3.72
2023-03-31T23:41:41.951Z,5.93
2023-03-31T23:44:08.761Z,3.13
2023-03-31T23:46:37.977Z,3.67
2023-03-31T23:49:05.250Z,3.22
2023-03-31T23:51:32.014Z,3.05
2023-03-31T23:53:58.958Z,4.80
2023-03-31T23:56:27.317Z,2.65
2023-03-31T23:58:54.292Z,5.78
